sensor_id;sensor_type;location;lat;lon;timestamp;P1;durP1;ratioP1;P2;durP2;ratioP2
76296;SDS011;65104;52.994;6.552;2023-01-09T00:02:19;5.82;;;1.80;;
76296;SDS011;65104;52.994;6.552;2023-01-09T00:04:45;3.53;;;1.40;;
76296;SDS011;65104;52.994;6.552;2023-01-09T00:07:11;2.75;;;1.40;;
76296;SDS011;65104;52.994;6.552;2023-01-09T00:09:36;5.85;;;1.50;;
76296;SDS011;65104;52.994;6.552;2023-01-09T00:12:02;2.10;;;1.55;;
76296;SDS011;65104;52.994;6.552;2023-01-09T00:14:28;4.05;;;1.35;;
76296;SDS011;65104;52.994;6.552;2023-01-09T00:16:54;4.05;;;1.45;;
76296;SDS011;65104;52.994;6.552;2023-01-09T00:19:21;3.38;;;1.40;;
76296;SDS011;65104;52.994;6.552;2023-01-09T00:21:46;1.92;;;1.35;;
76296;SDS011;65104;52.994;6.552;2023-01-09T00:24:12;4.15;;;1.67;;
76296;SDS011;65104;52.994;6.552;2023-01-09T00:26:38;4.35;;;1.42;;
76296;SDS011;65104;52.994;6.552;2023-01-09T00:29:04;3.70;;;1.52;;
76296;SDS011;65104;52.994;6.552;2023-01-09T00:31:30;1.73;;;0.60;;
76296;SDS011;65104;52.994;6.552;2023-01-09T00:36:22;0.52;;;0.30;;
76296;SDS011;65104;52.994;6.552;2023-01-09T00:38:48;0.73;;;0.40;;
76296;SDS011;65104;52.994;6.552;2023-01-09T00:41:15;0.80;;;0.30;;
76296;SDS011;65104;52.994;6.552;2023-01-09T00:43:49;1.08;;;0.60;;
76296;SDS011;65104;52.994;6.552;2023-01-09T00:46:19;0.80;;;0.50;;
76296;SDS011;65104;52.994;6.552;2023-01-09T00:48:49;1.48;;;1.38;;
76296;SDS011;65104;52.994;6.552;2023-01-09T00:51:18;2.05;;;0.88;;
76296;SDS011;65104;52.994;6.552;2023-01-09T00:53:44;2.30;;;1.20;;
76296;SDS011;65104;52.994;6.552;2023-01-09T00:56:13;4.10;;;1.40;;
76296;SDS011;65104;52.994;6.552;2023-01-09T00:58:40;2.55;;;1.00;;
76296;SDS011;65104;52.994;6.552;2023-01-09T01:01:06;2.22;;;1.02;;
76296;SDS011;65104;52.994;6.552;2023-01-09T01:03:32;4.40;;;1.35;;
76296;SDS011;65104;52.994;6.552;2023-01-09T01:05:58;1.50;;;1.40;;
76296;SDS011;65104;52.994;6.552;2023-01-09T01:08:44;3.63;;;1.55;;
76296;SDS011;65104;52.994;6.552;2023-01-09T01:11:10;1.58;;;1.40;;
76296;SDS011;65104;52.994;6.552;2023-01-09T01:13:38;3.75;;;1.35;;
76296;SDS011;65104;52.994;6.552;2023-01-09T01:16:06;2.13;;;1.10;;
76296;SDS011;65104;52.994;6.552;2023-01-09T01:18:33;1.63;;;1.20;;
76296;SDS011;65104;52.994;6.552;2023-01-09T01:20:59;4.25;;;1.38;;
76296;SDS011;65104;52.994;6.552;2023-01-09T01:23:25;2.35;;;0.98;;
76296;SDS011;65104;52.994;6.552;2023-01-09T01:25:50;2.55;;;1.10;;
76296;SDS011;65104;52.994;6.552;2023-01-09T01:28:17;1.88;;;1.17;;
76296;SDS011;65104;52.994;6.552;2023-01-09T01:30:43;2.67;;;1.00;;
76296;SDS011;65104;52.994;6.552;2023-01-09T01:33:09;1.85;;;0.90;;
76296;SDS011;65104;52.994;6.552;2023-01-09T01:35:35;3.20;;;1.35;;
76296;SDS011;65104;52.994;6.552;2023-01-09T01:38:02;1.73;;;0.82;;
76296;SDS011;65104;52.994;6.552;2023-01-09T01:40:28;1.52;;;1.10;;
76296;SDS011;65104;52.994;6.552;2023-01-09T01:42:53;3.13;;;0.80;;
76296;SDS011;65104;52.994;6.552;2023-01-09T01:50:17;1.13;;;0.80;;
76296;SDS011;65104;52.994;6.552;2023-01-09T01:52:53;3.50;;;0.80;;
76296;SDS011;65104;52.994;6.552;2023-01-09T01:55:24;0.70;;;0.68;;
76296;SDS011;65104;52.994;6.552;2023-01-09T01:57:51;1.98;;;0.70;;
76296;SDS011;65104;52.994;6.552;2023-01-09T02:00:24;0.93;;;0.90;;
76296;SDS011;65104;52.994;6.552;2023-01-09T02:02:56;2.00;;;0.98;;
76296;SDS011;65104;52.994;6.552;2023-01-09T02:07:48;1.25;;;0.80;;
76296;SDS011;65104;52.994;6.552;2023-01-09T02:10:14;3.22;;;1.30;;
76296;SDS011;65104;52.994;6.552;2023-01-09T02:12:40;1.77;;;0.90;;
76296;SDS011;65104;52.994;6.552;2023-01-09T02:15:07;2.47;;;0.98;;
76296;SDS011;65104;52.994;6.552;2023-01-09T02:17:40;2.85;;;0.95;;
76296;SDS011;65104;52.994;6.552;2023-01-09T02:22:50;1.35;;;1.00;;
76296;SDS011;65104;52.994;6.552;2023-01-09T02:31:16;1.45;;;1.20;;
76296;SDS011;65104;52.994;6.552;2023-01-09T02:33:49;2.67;;;1.40;;
76296;SDS011;65104;52.994;6.552;2023-01-09T02:39:10;2.40;;;1.17;;
76296;SDS011;65104;52.994;6.552;2023-01-09T02:49:51;2.10;;;1.38;;
76296;SDS011;65104;52.994;6.552;2023-01-09T03:00:06;3.42;;;1.17;;
76296;SDS011;65104;52.994;6.552;2023-01-09T03:02:52;4.82;;;1.42;;
76296;SDS011;65104;52.994;6.552;2023-01-09T03:05:30;4.82;;;1.60;;
76296;SDS011;65104;52.994;6.552;2023-01-09T03:08:02;3.80;;;1.42;;
76296;SDS011;65104;52.994;6.552;2023-01-09T03:13:23;4.03;;;1.67;;
76296;SDS011;65104;52.994;6.552;2023-01-09T03:15:52;1.83;;;1.45;;
76296;SDS011;65104;52.994;6.552;2023-01-09T03:18:21;2.90;;;1.58;;
76296;SDS011;65104;52.994;6.552;2023-01-09T03:20:50;3.17;;;1.63;;
76296;SDS011;65104;52.994;6.552;2023-01-09T03:23:18;3.10;;;2.00;;
76296;SDS011;65104;52.994;6.552;2023-01-09T03:25:43;4.18;;;1.90;;
76296;SDS011;65104;52.994;6.552;2023-01-09T03:28:13;5.90;;;2.10;;
76296;SDS011;65104;52.994;6.552;2023-01-09T03:30:53;5.40;;;1.70;;
76296;SDS011;65104;52.994;6.552;2023-01-09T03:33:19;4.18;;;2.05;;
76296;SDS011;65104;52.994;6.552;2023-01-09T03:35:48;4.10;;;1.90;;
76296;SDS011;65104;52.994;6.552;2023-01-09T03:38:19;4.57;;;1.98;;
76296;SDS011;65104;52.994;6.552;2023-01-09T03:40:45;6.13;;;2.60;;
76296;SDS011;65104;52.994;6.552;2023-01-09T03:43:11;5.25;;;2.30;;
76296;SDS011;65104;52.994;6.552;2023-01-09T03:45:36;4.20;;;2.05;;
76296;SDS011;65104;52.994;6.552;2023-01-09T03:48:02;3.47;;;2.30;;
76296;SDS011;65104;52.994;6.552;2023-01-09T03:50:29;5.53;;;2.40;;
76296;SDS011;65104;52.994;6.552;2023-01-09T03:52:55;6.80;;;2.30;;
76296;SDS011;65104;52.994;6.552;2023-01-09T03:55:21;4.40;;;2.33;;
76296;SDS011;65104;52.994;6.552;2023-01-09T03:57:47;5.22;;;2.05;;
76296;SDS011;65104;52.994;6.552;2023-01-09T04:00:13;7.15;;;2.53;;
76296;SDS011;65104;52.994;6.552;2023-01-09T04:02:39;4.82;;;2.38;;
76296;SDS011;65104;52.994;6.552;2023-01-09T04:05:05;3.55;;;2.20;;
76296;SDS011;65104;52.994;6.552;2023-01-09T04:07:31;4.70;;;2.30;;
76296;SDS011;65104;52.994;6.552;2023-01-09T04:09:57;6.05;;;2.67;;
76296;SDS011;65104;52.994;6.552;2023-01-09T04:12:23;2.05;;;1.67;;
76296;SDS011;65104;52.994;6.552;2023-01-09T04:14:48;5.13;;;2.38;;
76296;SDS011;65104;52.994;6.552;2023-01-09T04:17:14;5.70;;;2.25;;
76296;SDS011;65104;52.994;6.552;2023-01-09T04:19:40;5.97;;;2.50;;
76296;SDS011;65104;52.994;6.552;2023-01-09T04:22:06;8.00;;;2.60;;
76296;SDS011;65104;52.994;6.552;2023-01-09T04:24:32;6.00;;;2.25;;
76296;SDS011;65104;52.994;6.552;2023-01-09T04:26:58;6.57;;;2.55;;
76296;SDS011;65104;52.994;6.552;2023-01-09T04:29:24;6.40;;;2.30;;
76296;SDS011;65104;52.994;6.552;2023-01-09T04:31:50;6.10;;;2.95;;
76296;SDS011;65104;52.994;6.552;2023-01-09T04:34:16;5.78;;;2.92;;
76296;SDS011;65104;52.994;6.552;2023-01-09T04:36:42;7.00;;;2.92;;
76296;SDS011;65104;52.994;6.552;2023-01-09T04:39:08;6.38;;;2.75;;
76296;SDS011;65104;52.994;6.552;2023-01-09T04:41:34;6.85;;;3.25;;
76296;SDS011;65104;52.994;6.552;2023-01-09T04:44:17;5.15;;;3.20;;
76296;SDS011;65104;52.994;6.552;2023-01-09T04:46:47;7.63;;;3.20;;
76296;SDS011;65104;52.994;6.552;2023-01-09T04:49:13;5.10;;;2.85;;
76296;SDS011;65104;52.994;6.552;2023-01-09T04:51:39;5.93;;;2.83;;
76296;SDS011;65104;52.994;6.552;2023-01-09T04:54:05;10.32;;;3.25;;
76296;SDS011;65104;52.994;6.552;2023-01-09T04:56:31;7.60;;;3.40;;
76296;SDS011;65104;52.994;6.552;2023-01-09T04:58:57;7.15;;;3.95;;
76296;SDS011;65104;52.994;6.552;2023-01-09T05:01:23;7.60;;;3.70;;
76296;SDS011;65104;52.994;6.552;2023-01-09T05:03:49;12.60;;;4.40;;
76296;SDS011;65104;52.994;6.552;2023-01-09T05:06:15;7.55;;;3.65;;
76296;SDS011;65104;52.994;6.552;2023-01-09T05:08:40;7.72;;;3.88;;
76296;SDS011;65104;52.994;6.552;2023-01-09T05:11:06;8.27;;;4.32;;
76296;SDS011;65104;52.994;6.552;2023-01-09T05:13:32;11.85;;;5.15;;
76296;SDS011;65104;52.994;6.552;2023-01-09T05:15:58;10.90;;;5.38;;
76296;SDS011;65104;52.994;6.552;2023-01-09T05:18:24;9.02;;;5.25;;
76296;SDS011;65104;52.994;6.552;2023-01-09T05:20:49;14.13;;;6.07;;
76296;SDS011;65104;52.994;6.552;2023-01-09T05:23:15;10.88;;;5.57;;
76296;SDS011;65104;52.994;6.552;2023-01-09T05:25:40;10.32;;;5.60;;
76296;SDS011;65104;52.994;6.552;2023-01-09T05:28:06;14.15;;;6.70;;
76296;SDS011;65104;52.994;6.552;2023-01-09T05:30:32;17.17;;;6.75;;
76296;SDS011;65104;52.994;6.552;2023-01-09T05:32:58;12.23;;;6.93;;
76296;SDS011;65104;52.994;6.552;2023-01-09T05:35:24;12.85;;;6.57;;
76296;SDS011;65104;52.994;6.552;2023-01-09T05:37:50;13.95;;;7.00;;
76296;SDS011;65104;52.994;6.552;2023-01-09T05:40:16;16.50;;;6.85;;
76296;SDS011;65104;52.994;6.552;2023-01-09T05:42:42;14.43;;;6.68;;
76296;SDS011;65104;52.994;6.552;2023-01-09T05:45:08;12.50;;;6.47;;
76296;SDS011;65104;52.994;6.552;2023-01-09T05:47:34;15.70;;;8.02;;
76296;SDS011;65104;52.994;6.552;2023-01-09T05:50:00;15.65;;;6.57;;
76296;SDS011;65104;52.994;6.552;2023-01-09T05:52:26;14.02;;;8.02;;
76296;SDS011;65104;52.994;6.552;2023-01-09T05:54:52;14.02;;;7.63;;
76296;SDS011;65104;52.994;6.552;2023-01-09T05:57:18;12.80;;;6.97;;
76296;SDS011;65104;52.994;6.552;2023-01-09T05:59:43;17.70;;;8.60;;
76296;SDS011;65104;52.994;6.552;2023-01-09T06:02:09;21.20;;;9.00;;
76296;SDS011;65104;52.994;6.552;2023-01-09T06:04:34;13.02;;;7.43;;
76296;SDS011;65104;52.994;6.552;2023-01-09T06:07:00;16.27;;;8.23;;
76296;SDS011;65104;52.994;6.552;2023-01-09T06:09:26;14.55;;;7.57;;
76296;SDS011;65104;52.994;6.552;2023-01-09T06:11:53;14.50;;;8.25;;
76296;SDS011;65104;52.994;6.552;2023-01-09T06:14:19;17.75;;;8.18;;
76296;SDS011;65104;52.994;6.552;2023-01-09T06:16:45;14.15;;;8.00;;
76296;SDS011;65104;52.994;6.552;2023-01-09T06:19:11;13.90;;;7.10;;
76296;SDS011;65104;52.994;6.552;2023-01-09T06:21:36;14.90;;;7.80;;
76296;SDS011;65104;52.994;6.552;2023-01-09T06:24:02;15.75;;;7.38;;
76296;SDS011;65104;52.994;6.552;2023-01-09T06:26:28;16.02;;;7.88;;
76296;SDS011;65104;52.994;6.552;2023-01-09T06:28:54;16.73;;;8.40;;
76296;SDS011;65104;52.994;6.552;2023-01-09T06:31:24;15.48;;;8.02;;
76296;SDS011;65104;52.994;6.552;2023-01-09T06:33:49;15.65;;;6.82;;
76296;SDS011;65104;52.994;6.552;2023-01-09T06:36:15;18.58;;;8.43;;
76296;SDS011;65104;52.994;6.552;2023-01-09T06:38:41;15.52;;;8.02;;
76296;SDS011;65104;52.994;6.552;2023-01-09T06:41:07;13.30;;;7.60;;
76296;SDS011;65104;52.994;6.552;2023-01-09T06:43:32;17.15;;;8.45;;
76296;SDS011;65104;52.994;6.552;2023-01-09T06:45:58;14.25;;;7.25;;
76296;SDS011;65104;52.994;6.552;2023-01-09T06:48:24;14.15;;;6.72;;
76296;SDS011;65104;52.994;6.552;2023-01-09T06:50:50;13.57;;;7.22;;
76296;SDS011;65104;52.994;6.552;2023-01-09T06:53:16;11.60;;;6.82;;
76296;SDS011;65104;52.994;6.552;2023-01-09T06:55:42;13.30;;;6.93;;
76296;SDS011;65104;52.994;6.552;2023-01-09T06:58:07;15.27;;;7.65;;
76296;SDS011;65104;52.994;6.552;2023-01-09T07:00:33;13.10;;;6.40;;
76296;SDS011;65104;52.994;6.552;2023-01-09T07:02:59;15.05;;;6.82;;
76296;SDS011;65104;52.994;6.552;2023-01-09T07:05:25;13.85;;;6.30;;
76296;SDS011;65104;52.994;6.552;2023-01-09T07:07:50;12.05;;;6.03;;
76296;SDS011;65104;52.994;6.552;2023-01-09T07:10:16;11.55;;;5.85;;
76296;SDS011;65104;52.994;6.552;2023-01-09T07:12:41;11.10;;;6.38;;
76296;SDS011;65104;52.994;6.552;2023-01-09T07:15:07;9.75;;;5.80;;
76296;SDS011;65104;52.994;6.552;2023-01-09T07:17:33;13.05;;;5.70;;
76296;SDS011;65104;52.994;6.552;2023-01-09T07:19:59;14.60;;;6.38;;
76296;SDS011;65104;52.994;6.552;2023-01-09T07:22:25;15.27;;;5.13;;
76296;SDS011;65104;52.994;6.552;2023-01-09T07:24:51;12.75;;;5.30;;
76296;SDS011;65104;52.994;6.552;2023-01-09T07:27:17;12.02;;;5.22;;
76296;SDS011;65104;52.994;6.552;2023-01-09T07:29:42;12.60;;;4.90;;
76296;SDS011;65104;52.994;6.552;2023-01-09T07:32:08;8.45;;;4.57;;
76296;SDS011;65104;52.994;6.552;2023-01-09T07:34:33;8.98;;;4.93;;
76296;SDS011;65104;52.994;6.552;2023-01-09T07:36:59;13.82;;;5.05;;
76296;SDS011;65104;52.994;6.552;2023-01-09T07:39:25;10.10;;;5.03;;
76296;SDS011;65104;52.994;6.552;2023-01-09T07:41:51;9.13;;;4.70;;
76296;SDS011;65104;52.994;6.552;2023-01-09T07:44:17;9.32;;;4.97;;
76296;SDS011;65104;52.994;6.552;2023-01-09T07:46:43;8.63;;;4.30;;
76296;SDS011;65104;52.994;6.552;2023-01-09T07:49:09;10.93;;;4.90;;
76296;SDS011;65104;52.994;6.552;2023-01-09T07:51:34;10.95;;;5.32;;
76296;SDS011;65104;52.994;6.552;2023-01-09T07:54:00;10.20;;;4.32;;
76296;SDS011;65104;52.994;6.552;2023-01-09T07:56:26;8.18;;;5.20;;
76296;SDS011;65104;52.994;6.552;2023-01-09T07:58:52;8.52;;;4.15;;
76296;SDS011;65104;52.994;6.552;2023-01-09T08:01:18;6.47;;;4.50;;
76296;SDS011;65104;52.994;6.552;2023-01-09T08:03:44;7.78;;;4.00;;
76296;SDS011;65104;52.994;6.552;2023-01-09T08:06:09;9.73;;;3.85;;
76296;SDS011;65104;52.994;6.552;2023-01-09T08:08:35;9.73;;;4.63;;
76296;SDS011;65104;52.994;6.552;2023-01-09T08:11:01;8.30;;;4.30;;
76296;SDS011;65104;52.994;6.552;2023-01-09T08:13:27;10.30;;;4.57;;
76296;SDS011;65104;52.994;6.552;2023-01-09T08:15:53;8.45;;;3.88;;
76296;SDS011;65104;52.994;6.552;2023-01-09T08:18:18;6.85;;;3.72;;
76296;SDS011;65104;52.994;6.552;2023-01-09T08:20:46;8.10;;;4.25;;
76296;SDS011;65104;52.994;6.552;2023-01-09T08:23:13;10.23;;;3.45;;
76296;SDS011;65104;52.994;6.552;2023-01-09T08:25:38;8.45;;;3.13;;
76296;SDS011;65104;52.994;6.552;2023-01-09T08:28:04;8.93;;;3.75;;
76296;SDS011;65104;52.994;6.552;2023-01-09T08:30:30;4.15;;;2.47;;
76296;SDS011;65104;52.994;6.552;2023-01-09T08:32:55;4.28;;;2.95;;
76296;SDS011;65104;52.994;6.552;2023-01-09T08:35:21;6.60;;;3.13;;
76296;SDS011;65104;52.994;6.552;2023-01-09T08:37:46;6.93;;;3.30;;
76296;SDS011;65104;52.994;6.552;2023-01-09T08:40:13;8.02;;;3.42;;
76296;SDS011;65104;52.994;6.552;2023-01-09T08:42:40;6.70;;;3.40;;
76296;SDS011;65104;52.994;6.552;2023-01-09T08:45:24;5.85;;;2.90;;
76296;SDS011;65104;52.994;6.552;2023-01-09T08:48:09;8.52;;;2.85;;
76296;SDS011;65104;52.994;6.552;2023-01-09T08:50:35;8.30;;;2.95;;
76296;SDS011;65104;52.994;6.552;2023-01-09T08:53:01;8.27;;;3.13;;
76296;SDS011;65104;52.994;6.552;2023-01-09T08:55:26;5.65;;;2.78;;
76296;SDS011;65104;52.994;6.552;2023-01-09T08:57:52;6.22;;;2.80;;
76296;SDS011;65104;52.994;6.552;2023-01-09T09:00:20;4.97;;;2.15;;
76296;SDS011;65104;52.994;6.552;2023-01-09T09:02:55;6.10;;;2.50;;
76296;SDS011;65104;52.994;6.552;2023-01-09T09:05:23;4.00;;;2.60;;
76296;SDS011;65104;52.994;6.552;2023-01-09T09:07:50;9.05;;;2.97;;
76296;SDS011;65104;52.994;6.552;2023-01-09T09:10:21;5.47;;;2.55;;
76296;SDS011;65104;52.994;6.552;2023-01-09T09:12:52;6.78;;;2.78;;
76296;SDS011;65104;52.994;6.552;2023-01-09T09:15:19;4.80;;;2.78;;
76296;SDS011;65104;52.994;6.552;2023-01-09T09:17:50;5.07;;;2.53;;
76296;SDS011;65104;52.994;6.552;2023-01-09T09:20:17;6.03;;;2.92;;
76296;SDS011;65104;52.994;6.552;2023-01-09T09:22:44;5.32;;;2.75;;
76296;SDS011;65104;52.994;6.552;2023-01-09T09:27:36;6.95;;;2.35;;
76296;SDS011;65104;52.994;6.552;2023-01-09T09:30:02;4.93;;;2.45;;
76296;SDS011;65104;52.994;6.552;2023-01-09T09:32:30;6.82;;;3.00;;
76296;SDS011;65104;52.994;6.552;2023-01-09T09:34:56;4.97;;;2.83;;
76296;SDS011;65104;52.994;6.552;2023-01-09T09:37:22;4.78;;;2.67;;
76296;SDS011;65104;52.994;6.552;2023-01-09T09:39:48;7.75;;;3.13;;
76296;SDS011;65104;52.994;6.552;2023-01-09T09:56:26;4.72;;;2.67;;
76296;SDS011;65104;52.994;6.552;2023-01-09T09:59:08;6.93;;;2.90;;
76296;SDS011;65104;52.994;6.552;2023-01-09T10:01:44;4.65;;;2.42;;
76296;SDS011;65104;52.994;6.552;2023-01-09T10:04:16;5.10;;;2.47;;
76296;SDS011;65104;52.994;6.552;2023-01-09T10:06:45;4.22;;;2.25;;
76296;SDS011;65104;52.994;6.552;2023-01-09T10:09:28;6.88;;;2.78;;
76296;SDS011;65104;52.994;6.552;2023-01-09T10:14:52;5.95;;;2.33;;
76296;SDS011;65104;52.994;6.552;2023-01-09T10:23:04;5.38;;;2.72;;
76296;SDS011;65104;52.994;6.552;2023-01-09T10:31:26;4.30;;;2.30;;
76296;SDS011;65104;52.994;6.552;2023-01-09T10:39:39;4.82;;;2.47;;
76296;SDS011;65104;52.994;6.552;2023-01-09T10:42:43;9.00;;;2.58;;
76296;SDS011;65104;52.994;6.552;2023-01-09T10:48:00;3.95;;;2.53;;
76296;SDS011;65104;52.994;6.552;2023-01-09T10:50:33;5.13;;;2.50;;
76296;SDS011;65104;52.994;6.552;2023-01-09T10:53:14;5.03;;;2.42;;
76296;SDS011;65104;52.994;6.552;2023-01-09T10:55:45;5.60;;;2.70;;
76296;SDS011;65104;52.994;6.552;2023-01-09T10:58:12;4.63;;;2.20;;
76296;SDS011;65104;52.994;6.552;2023-01-09T11:00:40;7.63;;;3.13;;
76296;SDS011;65104;52.994;6.552;2023-01-09T11:03:13;5.32;;;2.83;;
76296;SDS011;65104;52.994;6.552;2023-01-09T11:05:40;5.10;;;2.78;;
76296;SDS011;65104;52.994;6.552;2023-01-09T11:10:45;6.40;;;2.65;;
76296;SDS011;65104;52.994;6.552;2023-01-09T11:13:16;4.88;;;2.30;;
76296;SDS011;65104;52.994;6.552;2023-01-09T11:15:44;5.22;;;2.83;;
76296;SDS011;65104;52.994;6.552;2023-01-09T11:18:16;6.10;;;2.67;;
76296;SDS011;65104;52.994;6.552;2023-01-09T11:20:44;2.65;;;2.20;;
76296;SDS011;65104;52.994;6.552;2023-01-09T11:23:23;6.13;;;2.92;;
76296;SDS011;65104;52.994;6.552;2023-01-09T11:25:51;6.35;;;2.90;;
76296;SDS011;65104;52.994;6.552;2023-01-09T11:28:18;7.22;;;2.95;;
76296;SDS011;65104;52.994;6.552;2023-01-09T11:30:51;4.88;;;2.55;;
76296;SDS011;65104;52.994;6.552;2023-01-09T11:33:23;6.20;;;2.50;;
76296;SDS011;65104;52.994;6.552;2023-01-09T11:35:58;6.00;;;3.20;;
76296;SDS011;65104;52.994;6.552;2023-01-09T11:38:24;6.97;;;3.10;;
76296;SDS011;65104;52.994;6.552;2023-01-09T11:40:53;4.25;;;3.13;;
76296;SDS011;65104;52.994;6.552;2023-01-09T11:45:51;5.05;;;3.30;;
76296;SDS011;65104;52.994;6.552;2023-01-09T11:48:33;4.70;;;3.13;;
76296;SDS011;65104;52.994;6.552;2023-01-09T11:51:02;5.75;;;2.83;;
76296;SDS011;65104;52.994;6.552;2023-01-09T11:53:45;5.38;;;3.20;;
76296;SDS011;65104;52.994;6.552;2023-01-09T11:56:25;5.85;;;3.28;;
76296;SDS011;65104;52.994;6.552;2023-01-09T11:58:51;4.97;;;3.15;;
76296;SDS011;65104;52.994;6.552;2023-01-09T12:01:29;8.20;;;3.75;;
76296;SDS011;65104;52.994;6.552;2023-01-09T12:19:25;6.25;;;3.90;;
76296;SDS011;65104;52.994;6.552;2023-01-09T12:30:40;8.27;;;4.03;;
76296;SDS011;65104;52.994;6.552;2023-01-09T12:39:00;6.15;;;3.20;;
76296;SDS011;65104;52.994;6.552;2023-01-09T12:49:58;8.82;;;4.03;;
76296;SDS011;65104;52.994;6.552;2023-01-09T12:52:34;7.18;;;3.72;;
76296;SDS011;65104;52.994;6.552;2023-01-09T12:57:56;6.72;;;4.07;;
76296;SDS011;65104;52.994;6.552;2023-01-09T13:00:31;7.78;;;4.55;;
76296;SDS011;65104;52.994;6.552;2023-01-09T13:03:13;7.47;;;4.28;;
76296;SDS011;65104;52.994;6.552;2023-01-09T13:12:17;6.68;;;4.10;;
76296;SDS011;65104;52.994;6.552;2023-01-09T13:17:20;10.80;;;4.28;;
76296;SDS011;65104;52.994;6.552;2023-01-09T13:19:50;8.98;;;4.22;;
76296;SDS011;65104;52.994;6.552;2023-01-09T13:22:17;8.68;;;4.53;;
76296;SDS011;65104;52.994;6.552;2023-01-09T13:27:25;7.03;;;4.60;;
76296;SDS011;65104;52.994;6.552;2023-01-09T13:30:01;9.02;;;4.80;;
76296;SDS011;65104;52.994;6.552;2023-01-09T13:32:51;9.35;;;4.70;;
76296;SDS011;65104;52.994;6.552;2023-01-09T13:35:48;9.43;;;5.03;;
76296;SDS011;65104;52.994;6.552;2023-01-09T13:38:17;8.55;;;4.38;;
76296;SDS011;65104;52.994;6.552;2023-01-09T13:40:45;10.23;;;5.13;;
76296;SDS011;65104;52.994;6.552;2023-01-09T13:43:11;11.57;;;5.65;;
76296;SDS011;65104;52.994;6.552;2023-01-09T13:45:39;9.80;;;5.20;;
76296;SDS011;65104;52.994;6.552;2023-01-09T13:50:41;11.18;;;4.95;;
76296;SDS011;65104;52.994;6.552;2023-01-09T14:01:02;7.72;;;5.00;;
76296;SDS011;65104;52.994;6.552;2023-01-09T14:03:34;9.85;;;4.80;;
76296;SDS011;65104;52.994;6.552;2023-01-09T14:06:02;9.10;;;5.13;;
76296;SDS011;65104;52.994;6.552;2023-01-09T14:08:36;10.82;;;5.30;;
76296;SDS011;65104;52.994;6.552;2023-01-09T14:11:03;9.80;;;4.75;;
76296;SDS011;65104;52.994;6.552;2023-01-09T14:13:42;9.60;;;4.80;;
76296;SDS011;65104;52.994;6.552;2023-01-09T14:21:19;6.97;;;3.65;;
76296;SDS011;65104;52.994;6.552;2023-01-09T14:23:47;7.20;;;3.17;;
76296;SDS011;65104;52.994;6.552;2023-01-09T14:26:16;6.63;;;3.17;;
76296;SDS011;65104;52.994;6.552;2023-01-09T14:37:34;10.98;;;3.38;;
76296;SDS011;65104;52.994;6.552;2023-01-09T14:40:02;7.22;;;3.22;;
76296;SDS011;65104;52.994;6.552;2023-01-09T14:42:30;7.70;;;3.53;;
76296;SDS011;65104;52.994;6.552;2023-01-09T14:45:00;11.63;;;3.47;;
76296;SDS011;65104;52.994;6.552;2023-01-09T14:52:32;8.00;;;3.53;;
76296;SDS011;65104;52.994;6.552;2023-01-09T14:55:03;8.05;;;3.00;;
76296;SDS011;65104;52.994;6.552;2023-01-09T14:57:40;12.50;;;3.63;;
76296;SDS011;65104;52.994;6.552;2023-01-09T15:00:15;6.35;;;2.90;;
76296;SDS011;65104;52.994;6.552;2023-01-09T15:02:44;6.47;;;2.80;;
76296;SDS011;65104;52.994;6.552;2023-01-09T15:05:22;6.70;;;3.17;;
76296;SDS011;65104;52.994;6.552;2023-01-09T15:07:51;8.07;;;3.30;;
76296;SDS011;65104;52.994;6.552;2023-01-09T15:10:31;7.75;;;3.38;;
76296;SDS011;65104;52.994;6.552;2023-01-09T15:13:02;8.63;;;3.20;;
76296;SDS011;65104;52.994;6.552;2023-01-09T15:15:31;8.40;;;2.45;;
76296;SDS011;65104;52.994;6.552;2023-01-09T15:18:01;7.10;;;2.60;;
76296;SDS011;65104;52.994;6.552;2023-01-09T15:20:30;9.05;;;2.90;;
76296;SDS011;65104;52.994;6.552;2023-01-09T15:22:59;8.40;;;2.70;;
76296;SDS011;65104;52.994;6.552;2023-01-09T15:25:46;5.38;;;2.50;;
76296;SDS011;65104;52.994;6.552;2023-01-09T15:28:30;7.10;;;2.80;;
76296;SDS011;65104;52.994;6.552;2023-01-09T15:31:02;12.73;;;3.45;;
76296;SDS011;65104;52.994;6.552;2023-01-09T15:33:37;14.88;;;11.52;;
76296;SDS011;65104;52.994;6.552;2023-01-09T15:36:07;5.15;;;4.72;;
76296;SDS011;65104;52.994;6.552;2023-01-09T15:38:38;4.03;;;2.25;;
76296;SDS011;65104;52.994;6.552;2023-01-09T15:41:07;28.73;;;14.57;;
76296;SDS011;65104;52.994;6.552;2023-01-09T15:43:37;8.05;;;5.68;;
76296;SDS011;65104;52.994;6.552;2023-01-09T15:46:05;18.88;;;12.45;;
76296;SDS011;65104;52.994;6.552;2023-01-09T15:48:32;10.60;;;5.88;;
76296;SDS011;65104;52.994;6.552;2023-01-09T15:51:06;9.93;;;6.32;;
76296;SDS011;65104;52.994;6.552;2023-01-09T15:53:35;10.82;;;4.53;;
76296;SDS011;65104;52.994;6.552;2023-01-09T15:58:42;5.13;;;2.80;;
76296;SDS011;65104;52.994;6.552;2023-01-09T16:04:14;8.07;;;4.07;;
76296;SDS011;65104;52.994;6.552;2023-01-09T16:06:48;19.00;;;10.73;;
76296;SDS011;65104;52.994;6.552;2023-01-09T16:11:43;11.65;;;6.95;;
76296;SDS011;65104;52.994;6.552;2023-01-09T16:16:40;12.48;;;7.32;;
76296;SDS011;65104;52.994;6.552;2023-01-09T16:21:57;8.90;;;6.18;;
76296;SDS011;65104;52.994;6.552;2023-01-09T16:24:25;59.10;;;27.73;;
76296;SDS011;65104;52.994;6.552;2023-01-09T16:27:38;148.85;;;61.45;;
76296;SDS011;65104;52.994;6.552;2023-01-09T16:29:46;47.20;;;22.55;;
76296;SDS011;65104;52.994;6.552;2023-01-09T16:32:20;30.33;;;17.50;;
76296;SDS011;65104;52.994;6.552;2023-01-09T16:35:06;20.50;;;11.07;;
76296;SDS011;65104;52.994;6.552;2023-01-09T16:37:40;20.58;;;15.23;;
76296;SDS011;65104;52.994;6.552;2023-01-09T16:42:41;31.35;;;18.02;;
76296;SDS011;65104;52.994;6.552;2023-01-09T16:48:13;8.13;;;2.25;;
76296;SDS011;65104;52.994;6.552;2023-01-09T16:50:41;7.75;;;4.13;;
76296;SDS011;65104;52.994;6.552;2023-01-09T16:53:21;8.02;;;5.07;;
76296;SDS011;65104;52.994;6.552;2023-01-09T16:55:48;8.55;;;5.20;;
76296;SDS011;65104;52.994;6.552;2023-01-09T16:58:14;8.77;;;4.40;;
76296;SDS011;65104;52.994;6.552;2023-01-09T17:00:44;12.85;;;5.63;;
76296;SDS011;65104;52.994;6.552;2023-01-09T17:03:13;9.35;;;3.67;;
76296;SDS011;65104;52.994;6.552;2023-01-09T17:05:39;7.80;;;3.20;;
76296;SDS011;65104;52.994;6.552;2023-01-09T17:08:25;11.35;;;4.15;;
76296;SDS011;65104;52.994;6.552;2023-01-09T17:10:53;11.00;;;4.05;;
76296;SDS011;65104;52.994;6.552;2023-01-09T17:13:20;12.55;;;5.35;;
76296;SDS011;65104;52.994;6.552;2023-01-09T17:15:46;15.52;;;4.78;;
76296;SDS011;65104;52.994;6.552;2023-01-09T17:18:17;10.27;;;4.80;;
76296;SDS011;65104;52.994;6.552;2023-01-09T17:20:45;13.15;;;4.93;;
76296;SDS011;65104;52.994;6.552;2023-01-09T17:23:13;11.70;;;4.85;;
76296;SDS011;65104;52.994;6.552;2023-01-09T17:25:39;35.15;;;15.75;;
76296;SDS011;65104;52.994;6.552;2023-01-09T17:28:23;35.85;;;14.18;;
76296;SDS011;65104;52.994;6.552;2023-01-09T17:31:01;79.05;;;32.85;;
76296;SDS011;65104;52.994;6.552;2023-01-09T17:33:34;53.38;;;20.90;;
76296;SDS011;65104;52.994;6.552;2023-01-09T17:36:01;48.15;;;20.08;;
76296;SDS011;65104;52.994;6.552;2023-01-09T17:38:28;49.35;;;21.45;;
76296;SDS011;65104;52.994;6.552;2023-01-09T17:40:53;49.95;;;21.23;;
76296;SDS011;65104;52.994;6.552;2023-01-09T17:43:22;14.63;;;7.45;;
76296;SDS011;65104;52.994;6.552;2023-01-09T17:45:49;15.38;;;6.95;;
76296;SDS011;65104;52.994;6.552;2023-01-09T17:48:16;21.77;;;13.70;;
76296;SDS011;65104;52.994;6.552;2023-01-09T17:50:44;17.20;;;10.15;;
76296;SDS011;65104;52.994;6.552;2023-01-09T17:53:11;28.42;;;14.43;;
76296;SDS011;65104;52.994;6.552;2023-01-09T17:55:38;16.30;;;7.00;;
76296;SDS011;65104;52.994;6.552;2023-01-09T18:00:34;15.98;;;8.40;;
76296;SDS011;65104;52.994;6.552;2023-01-09T18:03:01;12.32;;;5.78;;